x

West Superior - 30nm Ne Of Outer Island, Wi (45006) Wave Buoy

9:50pm - Sun 24th Jul 2016 All times are CDT. -5 hours from GMT.

  • Sig Wave height 1.3ft
  • Swell Direction
  • Peak Period 5s
  • Average Period 4s
  • Wind
    11mph, 13mph gusts
  • Sea Temp 59°f
  • Air Temp 64°f
  • Sea Pressure 1008.5mb
  • West Superior - 30nm Ne Of Outer Island, Wi
  • West Superior - 30nm Ne Of Outer Island, Wi

More Historic Weather Station data

Upgrade to MSW Pro to gain access to the past 30 days of data for over 8000 Wavebouys and Weather Stations around the globe.

Join Pro

Comparision Forecast

View Surf forecast
   
Sun 07/24 9:50pm 1.3ft 5s 4s 11 13 mph 1008.5mb 59f 64f
8:50pm 1.6ft 4s 4s 13
mph
1008.3mb 59f 64f
7:50pm 1.6ft 5s 4s 13
mph
1008.2mb 58f 65f
6:50pm 2ft 4s 4s 13 16 mph 1007.9mb 58f 64f
5:50pm 2.5ft 4s 4s 16 18 mph 1007.3mb 58f 65f
4:50pm 2.5ft 4s 3s 16 18 mph 1006.8mb 58f 65f
3:50pm 1.6ft 3s 3s 18 20 mph 1006.4mb 58f 67f
2:50pm 1ft 3s 3s 13 16 mph 1006.5mb 58f 64f
1:50pm 1ft 3s 3s 11 13 mph 1006.5mb 58f 64f
12:50pm 1.3ft 3s 3s 11
mph
1006.7mb 58f 62f
11:50am 1.3ft 2s 3s 11 13 mph 1006.6mb 58f 61f
10:50am 1ft 2s 3s 11 13 mph 1006.2mb 57f 61f
9:50am 0.7ft  -  3s 13 16 mph 1006mb 57f 62f
8:50am 1ft 4s 3s 9
mph
1005.7mb 57f 62f
7:50am 1ft 3s 3s 4
mph
1005.9mb 57f 61f
6:50am 1ft 3s 3s 7 9 mph 1005.5mb 57f 62f
5:50am 1ft 4s 3s 7 9 mph 1006mb 57f 61f
4:50am 1ft 4s 3s 9 11 mph 1006.3mb 57f 62f
3:50am 1.3ft 4s 3s 7
mph
1007.4mb 57f 61f
2:50am 1.3ft 4s 4s 4
mph
1007.7mb 57f 62f
1:50am 1.3ft 4s 4s 4 7 mph 1008mb 57f 62f
12:50am 1.3ft 4s 4s 9
mph
1008.6mb 57f 61f
Sat 07/23 11:50pm 1.3ft 4s 3s 7 9 mph 1008.9mb 57f 60f
10:50pm 1.6ft 4s 4s 4 7 mph 1009mb 57f 61f
9:50pm 1.6ft 4s 3s 9 11 mph 1009.3mb 57f 61f
8:50pm 2ft 4s 4s 13 16 mph 1009.5mb 57f 62f
7:50pm 2ft 4s 3s 16 20 mph 1009.5mb 58f 61f
6:50pm 2ft 4s 3s 16 18 mph 1010.5mb 58f 61f
5:50pm 1.6ft 4s 3s 16 18 mph 1011.2mb 58f 61f
4:50pm 1.6ft 3s 3s 16
mph
1011.6mb 58f 60f
3:50pm 1.3ft 3s 3s 16 18 mph 1012mb 58f 61f
2:50pm 1ft 3s 3s 16 18 mph 1013mb 59f 61f
1:50pm 0.7ft  -  3s 13
mph
1014.3mb 59f 61f
12:50pm 0.7ft  -  3s 11
mph
1015.2mb 59f 60f
11:50am 0.7ft  -  2s 13
mph
1013.9mb 59f 61f
10:50am  -   -   -  13 16 mph 1014.1mb 58f 62f
9:50am 0.3ft  -  3s 9 11 mph 1015.7mb 58f 62f
8:50am 0.3ft  -  3s 9 11 mph 1015.4mb 58f 61f
7:50am 0.3ft  -  3s 4
mph
1015mb 57f 62f
6:50am 0.3ft  -  3s 2 4 mph 1015.2mb 57f 62f
5:50am 0.3ft  -  3s 4 7 mph 1014.9mb 57f 63f
4:50am 0.3ft  -  3s 9
mph
1014.8mb 57f 62f
3:50am 0.7ft  -  3s 7 9 mph 1014.6mb 57f 62f
2:50am 0.7ft  -  3s 7 9 mph 1014.1mb 57f 62f
1:50am 0.7ft  -  3s 7
mph
1014mb 58f 62f
12:50am 0.7ft  -  3s 9
mph
1014.1mb 58f 64f
Fri 07/22 11:50pm 0.7ft  -  3s 9 11 mph 1013.7mb 58f 66f
10:50pm 0.7ft  -  3s 7 9 mph 1013.1mb 58f 66f
9:50pm 0.7ft  -  3s 9
mph
1012.8mb 58f 67f
8:50pm 0.7ft  -  3s 7 9 mph 1012.4mb 58f 65f
7:50pm 1ft 3s 3s 7 9 mph 1012.6mb 58f 66f
6:50pm 1ft 4s 3s 9 11 mph 1012.6mb 58f 66f
5:50pm 1ft 4s 3s 9
mph
1012.5mb 57f 66f
4:50pm 1.3ft 4s 3s 13 16 mph 1012.8mb 57f 66f
3:50pm 1.3ft 4s 3s 11 13 mph 1012.8mb 57f 65f
1:50pm 1.3ft 3s 3s 11 13 mph 1013.3mb 57f 64f
12:50pm 1.3ft 4s 3s 11 13 mph 1013.4mb 57f 63f
11:50am 1.3ft 3s 3s 13 16 mph 1013.4mb 57f 63f
10:50am 1.3ft 3s 3s 13
mph
1013.1mb 56f 61f
9:50am 1.3ft 3s 3s 16
mph
1012.8mb 56f 62f
8:50am 1ft 3s 3s 13 16 mph 1012.9mb 56f 61f
7:50am 1ft 3s 3s 13 16 mph 1012.9mb 56f 62f
6:50am 0.7ft  -  3s 11
mph
1013.1mb 56f 60f
5:50am 0.7ft  -  3s 9 11 mph 1012.9mb 56f 61f
4:50am 0.7ft  -  3s 11
mph
1012.7mb 56f 61f
3:50am 0.7ft  -  3s 13
mph
1012.4mb 56f 62f
2:50am 0.7ft  -  3s 9
mph
1012.2mb 56f 62f
1:50am 0.7ft  -  3s 11
mph
1012.3mb 57f 64f
12:50am 0.7ft  -  3s 9
mph
1012.1mb 56f 63f
Thu 07/21 11:50pm 1ft 4s 3s 9 11 mph 1011.8mb 56f 64f
10:50pm 1ft 4s 3s 9 11 mph 1011.3mb 56f 67f
9:50pm 1.3ft 4s 3s 11
mph
1010.8mb 57f 65f
8:50pm 1.6ft 4s 3s 9 11 mph 1010.3mb 57f 65f
7:50pm 2ft 4s 4s 9 11 mph 1009.8mb 57f 65f
6:50pm 1.6ft 5s 4s 13 16 mph 1009.2mb 57f 67f
5:50pm 1.3ft 4s 3s 13 16 mph 1008.7mb 56f 64f
4:50pm 1.3ft 3s 3s 11 13 mph 1008.7mb 56f 64f
3:50pm 1ft 3s 3s 16 18 mph 1009.1mb 56f 66f
2:50pm 1ft 3s 3s 13 16 mph 1009.2mb 56f 64f
1:50pm 1ft 3s 3s 11 13 mph 1009.4mb 56f 62f
12:50pm 0.7ft  -  3s 13 16 mph 1009.9mb 56f 62f
11:50am 0.7ft  -  3s 11 13 mph 1009.4mb 56f 62f
10:50am 0.7ft  -  3s 4 7 mph 1009.2mb 56f 61f
9:50am 1ft 3s 3s 9 11 mph 1008.3mb 56f 61f
8:50am 1.3ft 4s 3s 11 13 mph 1007.6mb 56f 60f
7:50am 1.3ft 3s 3s 18 20 mph 1008.3mb 56f 62f
6:50am 1.3ft 3s 3s 13 16 mph 1008.8mb 56f 61f
5:50am 1ft 2s 3s 22 31 mph 1008.9mb 56f 66f
4:50am 0.7ft  -  3s 7 9 mph 1007.9mb 58f 65f